PDG weather

Minangkabau International Airport
Ketaping/Padang - Sumatra Island, Sumatra Barat, Indonesia

Public forecast

Using degrees Celsius for public forecast. Weather courtesy of forecast.io.

METAR (pilot weather report)

Retrieved 2019/04/24 09:00 UTC (31 minutes ago):

WIEE 240900Z 14006KT 9999 FEW020 31/25 Q1006

TAF (pilot weather forecast)

Retrieved 2019/04/24 06:00 UTC (4 hours ago):

TAF WIEE 240500Z 2406/2506 24003KT 9999 SCT020 TEMPO 2408/2411 07004KT 3000 -RA BKN019